sensor_id;sensor_type;location;lat;lon;timestamp;pressure;altitude;pressure_sealevel;temperature;humidity
20455;BME280;10386;54.314;10.022;2023-02-23T00:01:57;100919.81;;;8.59;100.00
20455;BME280;10386;54.314;10.022;2023-02-23T00:04:34;100923.84;;;8.52;100.00
20455;BME280;10386;54.314;10.022;2023-02-23T00:07:01;100907.44;;;8.55;100.00
20455;BME280;10386;54.314;10.022;2023-02-23T00:09:28;100921.25;;;8.64;100.00
20455;BME280;10386;54.314;10.022;2023-02-23T00:12:04;100902.22;;;8.66;100.00
20455;BME280;10386;54.314;10.022;2023-02-23T00:14:35;100891.88;;;8.72;100.00
20455;BME280;10386;54.314;10.022;2023-02-23T00:17:04;100903.78;;;8.70;100.00
20455;BME280;10386;54.314;10.022;2023-02-23T00:19:31;100890.03;;;8.73;100.00
20455;BME280;10386;54.314;10.022;2023-02-23T00:21:59;100891.09;;;8.70;100.00
20455;BME280;10386;54.314;10.022;2023-02-23T00:24:26;100891.59;;;8.77;100.00
20455;BME280;10386;54.314;10.022;2023-02-23T00:26:53;100884.13;;;8.80;100.00
20455;BME280;10386;54.314;10.022;2023-02-23T00:29:22;100896.63;;;8.69;100.00
20455;BME280;10386;54.314;10.022;2023-02-23T00:31:50;100885.09;;;8.65;100.00
20455;BME280;10386;54.314;10.022;2023-02-23T00:34:19;100883.56;;;8.61;100.00
20455;BME280;10386;54.314;10.022;2023-02-23T00:36:51;100883.75;;;8.72;100.00
20455;BME280;10386;54.314;10.022;2023-02-23T00:39:21;100875.56;;;8.74;100.00
20455;BME280;10386;54.314;10.022;2023-02-23T00:41:52;100879.41;;;8.70;100.00
20455;BME280;10386;54.314;10.022;2023-02-23T00:44:21;100879.31;;;8.71;100.00
20455;BME280;10386;54.314;10.022;2023-02-23T00:46:49;100881.94;;;8.73;100.00
20455;BME280;10386;54.314;10.022;2023-02-23T00:49:19;100882.91;;;8.72;100.00
20455;BME280;10386;54.314;10.022;2023-02-23T00:51:46;100867.50;;;8.72;100.00
20455;BME280;10386;54.314;10.022;2023-02-23T00:54:15;100868.00;;;8.79;100.00
20455;BME280;10386;54.314;10.022;2023-02-23T00:56:42;100869.16;;;8.75;100.00
20455;BME280;10386;54.314;10.022;2023-02-23T00:59:09;100870.53;;;8.68;100.00
20455;BME280;10386;54.314;10.022;2023-02-23T01:01:37;100870.72;;;8.65;100.00
20455;BME280;10386;54.314;10.022;2023-02-23T01:04:04;100864.72;;;8.60;100.00
20455;BME280;10386;54.314;10.022;2023-02-23T01:06:33;100871.09;;;8.59;100.00
20455;BME280;10386;54.314;10.022;2023-02-23T01:09:10;100865.78;;;8.57;100.00
20455;BME280;10386;54.314;10.022;2023-02-23T01:11:37;100862.00;;;8.60;100.00
20455;BME280;10386;54.314;10.022;2023-02-23T01:14:03;100856.31;;;8.64;100.00
20455;BME280;10386;54.314;10.022;2023-02-23T01:16:33;100854.16;;;8.55;100.00
20455;BME280;10386;54.314;10.022;2023-02-23T01:19:03;100849.25;;;8.62;100.00
20455;BME280;10386;54.314;10.022;2023-02-23T01:21:32;100851.56;;;8.54;100.00
20455;BME280;10386;54.314;10.022;2023-02-23T01:24:00;100847.47;;;8.47;100.00
20455;BME280;10386;54.314;10.022;2023-02-23T01:26:33;100838.50;;;8.46;100.00
20455;BME280;10386;54.314;10.022;2023-02-23T01:29:23;100837.44;;;8.49;100.00
20455;BME280;10386;54.314;10.022;2023-02-23T01:31:48;100829.94;;;8.54;100.00
20455;BME280;10386;54.314;10.022;2023-02-23T01:34:19;100822.00;;;8.65;100.00
20455;BME280;10386;54.314;10.022;2023-02-23T01:36:49;100818.53;;;8.63;100.00
20455;BME280;10386;54.314;10.022;2023-02-23T01:39:18;100810.97;;;8.68;100.00
20455;BME280;10386;54.314;10.022;2023-02-23T01:41:46;100812.03;;;8.65;100.00
20455;BME280;10386;54.314;10.022;2023-02-23T01:46:42;100797.06;;;8.60;100.00
20455;BME280;10386;54.314;10.022;2023-02-23T01:49:17;100801.31;;;8.50;100.00
20455;BME280;10386;54.314;10.022;2023-02-23T01:51:51;100800.38;;;8.51;100.00
20455;BME280;10386;54.314;10.022;2023-02-23T01:54:24;100795.88;;;8.50;100.00
20455;BME280;10386;54.314;10.022;2023-02-23T01:56:55;100791.94;;;8.69;100.00
20455;BME280;10386;54.314;10.022;2023-02-23T01:59:31;100795.78;;;8.65;100.00
20455;BME280;10386;54.314;10.022;2023-02-23T02:02:00;100781.88;;;8.57;100.00
20455;BME280;10386;54.314;10.022;2023-02-23T02:04:33;100784.91;;;8.53;100.00
20455;BME280;10386;54.314;10.022;2023-02-23T02:07:15;100778.13;;;8.46;100.00
20455;BME280;10386;54.314;10.022;2023-02-23T02:09:43;100771.19;;;8.56;100.00
20455;BME280;10386;54.314;10.022;2023-02-23T02:12:30;100757.47;;;8.59;100.00
20455;BME280;10386;54.314;10.022;2023-02-23T02:14:58;100758.22;;;8.61;100.00
20455;BME280;10386;54.314;10.022;2023-02-23T02:20:44;100748.38;;;8.60;100.00
20455;BME280;10386;54.314;10.022;2023-02-23T02:29:06;100760.53;;;8.39;100.00
20455;BME280;10386;54.314;10.022;2023-02-23T02:31:54;100747.31;;;8.48;100.00
20455;BME280;10386;54.314;10.022;2023-02-23T02:39:45;100743.34;;;8.54;100.00
20455;BME280;10386;54.314;10.022;2023-02-23T02:42:38;100736.88;;;8.42;100.00
20455;BME280;10386;54.314;10.022;2023-02-23T02:45:14;100739.28;;;8.47;100.00
20455;BME280;10386;54.314;10.022;2023-02-23T02:48:18;100738.69;;;8.42;100.00
20455;BME280;10386;54.314;10.022;2023-02-23T02:51:09;100728.25;;;8.50;100.00
20455;BME280;10386;54.314;10.022;2023-02-23T02:53:44;100730.78;;;8.39;100.00
20455;BME280;10386;54.314;10.022;2023-02-23T02:56:16;100742.56;;;8.38;100.00
20455;BME280;10386;54.314;10.022;2023-02-23T02:58:46;100732.53;;;8.40;100.00
20455;BME280;10386;54.314;10.022;2023-02-23T03:01:16;100733.88;;;8.47;100.00
20455;BME280;10386;54.314;10.022;2023-02-23T03:04:18;100719.97;;;8.53;100.00
20455;BME280;10386;54.314;10.022;2023-02-23T03:07:22;100714.38;;;8.56;100.00
20455;BME280;10386;54.314;10.022;2023-02-23T03:10:35;100715.31;;;8.69;100.00
20455;BME280;10386;54.314;10.022;2023-02-23T03:19:29;100706.41;;;8.67;100.00
20455;BME280;10386;54.314;10.022;2023-02-23T03:22:27;100703.50;;;8.70;100.00
20455;BME280;10386;54.314;10.022;2023-02-23T03:25:28;100701.19;;;8.64;100.00
20455;BME280;10386;54.314;10.022;2023-02-23T03:28:18;100687.56;;;8.65;100.00
20455;BME280;10386;54.314;10.022;2023-02-23T03:37:33;100696.06;;;8.59;100.00
20455;BME280;10386;54.314;10.022;2023-02-23T03:40:28;100689.50;;;8.63;100.00
20455;BME280;10386;54.314;10.022;2023-02-23T03:43:24;100690.56;;;8.61;100.00
20455;BME280;10386;54.314;10.022;2023-02-23T03:46:12;100688.53;;;8.64;100.00
20455;BME280;10386;54.314;10.022;2023-02-23T03:49:01;100686.69;;;8.65;100.00
20455;BME280;10386;54.314;10.022;2023-02-23T03:51:52;100692.31;;;8.62;100.00
20455;BME280;10386;54.314;10.022;2023-02-23T03:54:59;100689.41;;;8.65;100.00
20455;BME280;10386;54.314;10.022;2023-02-23T03:57:47;100691.75;;;8.57;100.00
20455;BME280;10386;54.314;10.022;2023-02-23T04:00:41;100682.25;;;8.64;100.00
20455;BME280;10386;54.314;10.022;2023-02-23T04:03:30;100681.84;;;8.70;100.00
20455;BME280;10386;54.314;10.022;2023-02-23T04:06:18;100679.28;;;8.54;100.00
20455;BME280;10386;54.314;10.022;2023-02-23T04:09:05;100678.50;;;8.52;100.00
20455;BME280;10386;54.314;10.022;2023-02-23T04:12:12;100669.81;;;8.47;100.00
20455;BME280;10386;54.314;10.022;2023-02-23T04:15:22;100662.34;;;8.65;100.00
20455;BME280;10386;54.314;10.022;2023-02-23T04:17:52;100654.94;;;8.81;100.00
20455;BME280;10386;54.314;10.022;2023-02-23T04:20:19;100650.72;;;8.77;100.00
20455;BME280;10386;54.314;10.022;2023-02-23T04:22:46;100656.06;;;8.64;100.00
20455;BME280;10386;54.314;10.022;2023-02-23T04:25:14;100653.88;;;8.57;100.00
20455;BME280;10386;54.314;10.022;2023-02-23T04:27:42;100646.53;;;8.59;100.00
20455;BME280;10386;54.314;10.022;2023-02-23T04:30:10;100649.66;;;8.65;100.00
20455;BME280;10386;54.314;10.022;2023-02-23T04:32:37;100645.16;;;8.66;100.00
20455;BME280;10386;54.314;10.022;2023-02-23T04:35:04;100638.97;;;8.64;100.00
20455;BME280;10386;54.314;10.022;2023-02-23T04:37:31;100638.41;;;8.59;100.00
20455;BME280;10386;54.314;10.022;2023-02-23T04:39:58;100628.56;;;8.58;100.00
20455;BME280;10386;54.314;10.022;2023-02-23T04:42:25;100631.25;;;8.58;100.00
20455;BME280;10386;54.314;10.022;2023-02-23T04:44:52;100632.06;;;8.72;100.00
20455;BME280;10386;54.314;10.022;2023-02-23T04:47:18;100625.53;;;8.62;100.00
20455;BME280;10386;54.314;10.022;2023-02-23T04:49:46;100628.16;;;8.64;100.00
20455;BME280;10386;54.314;10.022;2023-02-23T04:52:12;100623.09;;;8.72;100.00
20455;BME280;10386;54.314;10.022;2023-02-23T04:54:40;100625.84;;;8.58;100.00
20455;BME280;10386;54.314;10.022;2023-02-23T04:57:07;100617.97;;;8.67;100.00
20455;BME280;10386;54.314;10.022;2023-02-23T04:59:35;100611.34;;;8.59;100.00
20455;BME280;10386;54.314;10.022;2023-02-23T05:02:02;100601.38;;;8.59;100.00
20455;BME280;10386;54.314;10.022;2023-02-23T05:04:29;100605.38;;;8.54;100.00
20455;BME280;10386;54.314;10.022;2023-02-23T05:06:55;100604.28;;;8.56;100.00
20455;BME280;10386;54.314;10.022;2023-02-23T05:09:22;100607.97;;;8.55;100.00
20455;BME280;10386;54.314;10.022;2023-02-23T05:11:49;100601.50;;;8.58;100.00
20455;BME280;10386;54.314;10.022;2023-02-23T05:14:16;100597.47;;;8.51;100.00
20455;BME280;10386;54.314;10.022;2023-02-23T05:16:43;100591.47;;;8.72;100.00
20455;BME280;10386;54.314;10.022;2023-02-23T05:19:09;100587.34;;;8.67;100.00
20455;BME280;10386;54.314;10.022;2023-02-23T05:21:37;100587.91;;;8.72;100.00
20455;BME280;10386;54.314;10.022;2023-02-23T05:24:04;100589.84;;;8.70;100.00
20455;BME280;10386;54.314;10.022;2023-02-23T05:26:31;100577.38;;;8.67;100.00
20455;BME280;10386;54.314;10.022;2023-02-23T05:28:58;100571.59;;;8.86;100.00
20455;BME280;10386;54.314;10.022;2023-02-23T05:31:26;100566.53;;;8.67;100.00
20455;BME280;10386;54.314;10.022;2023-02-23T05:33:53;100576.81;;;8.62;100.00
20455;BME280;10386;54.314;10.022;2023-02-23T05:36:20;100577.69;;;8.63;100.00
20455;BME280;10386;54.314;10.022;2023-02-23T05:38:47;100569.38;;;8.66;100.00
20455;BME280;10386;54.314;10.022;2023-02-23T05:41:17;100566.13;;;8.73;100.00
20455;BME280;10386;54.314;10.022;2023-02-23T05:43:44;100569.59;;;8.63;100.00
20455;BME280;10386;54.314;10.022;2023-02-23T05:46:22;100559.19;;;8.57;100.00
20455;BME280;10386;54.314;10.022;2023-02-23T05:48:50;100556.69;;;8.54;100.00
20455;BME280;10386;54.314;10.022;2023-02-23T05:51:20;100560.53;;;8.50;100.00
20455;BME280;10386;54.314;10.022;2023-02-23T05:53:47;100556.28;;;8.46;100.00
20455;BME280;10386;54.314;10.022;2023-02-23T05:56:16;100552.06;;;8.42;100.00
20455;BME280;10386;54.314;10.022;2023-02-23T05:58:54;100548.84;;;8.49;100.00
20455;BME280;10386;54.314;10.022;2023-02-23T06:01:21;100541.91;;;8.45;100.00
20455;BME280;10386;54.314;10.022;2023-02-23T06:03:48;100537.47;;;8.44;100.00
20455;BME280;10386;54.314;10.022;2023-02-23T06:06:16;100529.03;;;8.49;100.00
20455;BME280;10386;54.314;10.022;2023-02-23T06:08:43;100529.56;;;8.41;100.00
20455;BME280;10386;54.314;10.022;2023-02-23T06:11:10;100530.53;;;8.40;100.00
20455;BME280;10386;54.314;10.022;2023-02-23T06:13:37;100520.16;;;8.47;100.00
20455;BME280;10386;54.314;10.022;2023-02-23T06:16:04;100509.13;;;8.50;100.00
20455;BME280;10386;54.314;10.022;2023-02-23T06:18:31;100511.41;;;8.43;100.00
20455;BME280;10386;54.314;10.022;2023-02-23T06:20:59;100509.47;;;8.45;100.00
20455;BME280;10386;54.314;10.022;2023-02-23T06:23:27;100501.38;;;8.58;100.00
20455;BME280;10386;54.314;10.022;2023-02-23T06:25:54;100493.63;;;8.66;100.00
20455;BME280;10386;54.314;10.022;2023-02-23T06:28:21;100498.78;;;8.56;100.00
20455;BME280;10386;54.314;10.022;2023-02-23T06:30:52;100498.63;;;8.45;100.00
20455;BME280;10386;54.314;10.022;2023-02-23T06:33:20;100497.97;;;8.42;100.00
20455;BME280;10386;54.314;10.022;2023-02-23T06:35:47;100485.97;;;8.46;100.00
20455;BME280;10386;54.314;10.022;2023-02-23T06:38:14;100485.88;;;8.47;100.00
20455;BME280;10386;54.314;10.022;2023-02-23T06:40:41;100494.00;;;8.47;100.00
20455;BME280;10386;54.314;10.022;2023-02-23T06:43:09;100484.78;;;8.50;100.00
20455;BME280;10386;54.314;10.022;2023-02-23T06:45:35;100488.59;;;8.47;100.00
20455;BME280;10386;54.314;10.022;2023-02-23T06:48:02;100489.84;;;8.42;100.00
20455;BME280;10386;54.314;10.022;2023-02-23T06:50:29;100483.81;;;8.38;100.00
20455;BME280;10386;54.314;10.022;2023-02-23T06:55:58;100479.91;;;8.42;100.00
20455;BME280;10386;54.314;10.022;2023-02-23T06:58:25;100480.00;;;8.41;100.00
20455;BME280;10386;54.314;10.022;2023-02-23T07:00:54;100481.09;;;8.38;100.00
20455;BME280;10386;54.314;10.022;2023-02-23T07:03:22;100472.84;;;8.40;100.00
20455;BME280;10386;54.314;10.022;2023-02-23T07:05:49;100473.81;;;8.39;100.00
20455;BME280;10386;54.314;10.022;2023-02-23T07:08:16;100476.66;;;8.37;100.00
20455;BME280;10386;54.314;10.022;2023-02-23T07:10:44;100468.63;;;8.36;100.00
20455;BME280;10386;54.314;10.022;2023-02-23T07:13:11;100470.56;;;8.34;100.00
20455;BME280;10386;54.314;10.022;2023-02-23T07:15:39;100457.81;;;8.36;100.00
20455;BME280;10386;54.314;10.022;2023-02-23T07:18:06;100460.50;;;8.36;100.00
20455;BME280;10386;54.314;10.022;2023-02-23T07:20:33;100452.19;;;8.39;100.00
20455;BME280;10386;54.314;10.022;2023-02-23T07:23:00;100442.75;;;8.32;100.00
20455;BME280;10386;54.314;10.022;2023-02-23T07:25:27;100441.91;;;8.31;100.00
20455;BME280;10386;54.314;10.022;2023-02-23T07:27:55;100437.16;;;8.35;100.00
20455;BME280;10386;54.314;10.022;2023-02-23T07:30:21;100439.09;;;8.33;100.00
20455;BME280;10386;54.314;10.022;2023-02-23T07:32:52;100437.47;;;8.30;100.00
20455;BME280;10386;54.314;10.022;2023-02-23T07:35:19;100422.66;;;8.36;100.00
20455;BME280;10386;54.314;10.022;2023-02-23T07:37:46;100424.94;;;8.29;100.00
20455;BME280;10386;54.314;10.022;2023-02-23T07:40:14;100424.03;;;8.29;100.00
20455;BME280;10386;54.314;10.022;2023-02-23T07:42:41;100424.94;;;8.29;100.00
20455;BME280;10386;54.314;10.022;2023-02-23T07:45:08;100419.81;;;8.25;100.00
20455;BME280;10386;54.314;10.022;2023-02-23T07:47:35;100420.16;;;8.33;100.00
20455;BME280;10386;54.314;10.022;2023-02-23T07:50:04;100415.63;;;8.33;100.00
20455;BME280;10386;54.314;10.022;2023-02-23T07:52:36;100413.91;;;8.32;100.00
20455;BME280;10386;54.314;10.022;2023-02-23T07:55:04;100402.09;;;8.33;100.00
20455;BME280;10386;54.314;10.022;2023-02-23T07:57:32;100409.56;;;8.30;100.00
20455;BME280;10386;54.314;10.022;2023-02-23T07:59:59;100396.91;;;8.30;100.00
20455;BME280;10386;54.314;10.022;2023-02-23T08:02:26;100398.94;;;8.27;100.00
20455;BME280;10386;54.314;10.022;2023-02-23T08:04:57;100395.47;;;8.25;100.00
20455;BME280;10386;54.314;10.022;2023-02-23T08:07:24;100384.38;;;8.29;100.00
20455;BME280;10386;54.314;10.022;2023-02-23T08:09:51;100393.44;;;8.28;100.00
20455;BME280;10386;54.314;10.022;2023-02-23T08:12:19;100390.69;;;8.16;100.00
20455;BME280;10386;54.314;10.022;2023-02-23T08:14:45;100392.13;;;8.22;100.00
20455;BME280;10386;54.314;10.022;2023-02-23T08:17:12;100394.34;;;8.15;100.00
20455;BME280;10386;54.314;10.022;2023-02-23T08:19:39;100391.09;;;8.10;100.00
20455;BME280;10386;54.314;10.022;2023-02-23T08:22:06;100377.09;;;8.18;100.00
20455;BME280;10386;54.314;10.022;2023-02-23T08:24:36;100379.81;;;8.18;100.00
20455;BME280;10386;54.314;10.022;2023-02-23T08:27:03;100367.13;;;8.18;100.00
20455;BME280;10386;54.314;10.022;2023-02-23T08:29:30;100372.53;;;8.18;100.00
20455;BME280;10386;54.314;10.022;2023-02-23T08:31:57;100369.47;;;8.10;100.00
20455;BME280;10386;54.314;10.022;2023-02-23T08:34:24;100359.31;;;8.14;100.00
20455;BME280;10386;54.314;10.022;2023-02-23T08:36:51;100358.88;;;8.07;100.00
20455;BME280;10386;54.314;10.022;2023-02-23T08:39:19;100365.25;;;8.06;100.00
20455;BME280;10386;54.314;10.022;2023-02-23T08:41:46;100360.50;;;8.10;100.00
20455;BME280;10386;54.314;10.022;2023-02-23T08:44:13;100362.03;;;8.14;100.00
20455;BME280;10386;54.314;10.022;2023-02-23T08:46:40;100354.88;;;8.13;100.00
20455;BME280;10386;54.314;10.022;2023-02-23T08:49:07;100357.69;;;8.11;100.00
20455;BME280;10386;54.314;10.022;2023-02-23T08:51:37;100356.50;;;8.15;100.00
20455;BME280;10386;54.314;10.022;2023-02-23T08:54:03;100357.69;;;8.11;100.00
20455;BME280;10386;54.314;10.022;2023-02-23T08:56:35;100360.31;;;8.13;100.00
20455;BME280;10386;54.314;10.022;2023-02-23T08:59:02;100361.47;;;8.09;100.00
20455;BME280;10386;54.314;10.022;2023-02-23T09:01:28;100362.53;;;8.06;100.00
20455;BME280;10386;54.314;10.022;2023-02-23T09:03:55;100357.59;;;8.13;100.00
20455;BME280;10386;54.314;10.022;2023-02-23T09:06:24;100356.06;;;8.09;100.00
20455;BME280;10386;54.314;10.022;2023-02-23T09:08:53;100361.56;;;8.07;100.00
20455;BME280;10386;54.314;10.022;2023-02-23T09:11:21;100356.38;;;8.04;100.00
20455;BME280;10386;54.314;10.022;2023-02-23T09:13:48;100360.06;;;8.03;100.00
20455;BME280;10386;54.314;10.022;2023-02-23T09:16:15;100362.75;;;8.03;100.00
20455;BME280;10386;54.314;10.022;2023-02-23T09:18:42;100365.44;;;8.03;100.00
20455;BME280;10386;54.314;10.022;2023-02-23T09:21:14;100368.28;;;8.14;100.00
20455;BME280;10386;54.314;10.022;2023-02-23T09:23:44;100370.66;;;8.06;100.00
20455;BME280;10386;54.314;10.022;2023-02-23T09:26:13;100373.22;;;8.08;100.00
20455;BME280;10386;54.314;10.022;2023-02-23T09:28:40;100365.34;;;8.05;100.00
20455;BME280;10386;54.314;10.022;2023-02-23T09:31:08;100372.88;;;8.00;100.00
20455;BME280;10386;54.314;10.022;2023-02-23T09:33:36;100375.09;;;8.07;100.00
20455;BME280;10386;54.314;10.022;2023-02-23T09:36:05;100369.47;;;8.10;100.00
20455;BME280;10386;54.314;10.022;2023-02-23T09:38:33;100378.13;;;8.15;100.00
20455;BME280;10386;54.314;10.022;2023-02-23T09:40:59;100385.97;;;8.20;100.00
20455;BME280;10386;54.314;10.022;2023-02-23T09:46:13;100388.47;;;8.23;100.00
20455;BME280;10386;54.314;10.022;2023-02-23T09:48:44;100402.84;;;8.23;100.00
20455;BME280;10386;54.314;10.022;2023-02-23T09:51:16;100400.16;;;8.35;100.00
20455;BME280;10386;54.314;10.022;2023-02-23T09:53:52;100413.06;;;8.44;100.00
20455;BME280;10386;54.314;10.022;2023-02-23T09:56:28;100422.97;;;8.31;100.00
20455;BME280;10386;54.314;10.022;2023-02-23T09:58:55;100426.25;;;8.36;100.00
20455;BME280;10386;54.314;10.022;2023-02-23T10:04:45;100449.59;;;8.37;100.00
20455;BME280;10386;54.314;10.022;2023-02-23T10:07:25;100463.22;;;8.36;100.00
20455;BME280;10386;54.314;10.022;2023-02-23T10:15:46;100494.66;;;8.51;100.00
20455;BME280;10386;54.314;10.022;2023-02-23T10:18:40;100505.56;;;8.49;100.00
20455;BME280;10386;54.314;10.022;2023-02-23T10:21:46;100510.53;;;8.82;100.00
20455;BME280;10386;54.314;10.022;2023-02-23T10:24:21;100530.22;;;8.84;100.00
20455;BME280;10386;54.314;10.022;2023-02-23T10:26:58;100540.81;;;8.74;100.00
20455;BME280;10386;54.314;10.022;2023-02-23T10:34:45;100588.38;;;8.52;100.00
20455;BME280;10386;54.314;10.022;2023-02-23T10:37:15;100594.34;;;8.57;100.00
20455;BME280;10386;54.314;10.022;2023-02-23T10:39:42;100609.63;;;8.70;100.00
20455;BME280;10386;54.314;10.022;2023-02-23T10:42:14;100607.41;;;8.77;100.00
20455;BME280;10386;54.314;10.022;2023-02-23T10:44:44;100620.47;;;8.70;100.00
20455;BME280;10386;54.314;10.022;2023-02-23T10:47:20;100624.81;;;8.73;100.00
20455;BME280;10386;54.314;10.022;2023-02-23T10:49:51;100637.19;;;8.89;100.00
20455;BME280;10386;54.314;10.022;2023-02-23T10:54:58;100655.91;;;9.19;100.00
20455;BME280;10386;54.314;10.022;2023-02-23T10:57:31;100667.09;;;9.14;100.00
20455;BME280;10386;54.314;10.022;2023-02-23T11:02:47;100696.81;;;9.02;100.00
20455;BME280;10386;54.314;10.022;2023-02-23T11:05:44;100719.28;;;8.90;100.00
20455;BME280;10386;54.314;10.022;2023-02-23T11:08:24;100730.69;;;8.95;100.00
20455;BME280;10386;54.314;10.022;2023-02-23T11:11:03;100741.97;;;8.75;100.00
20455;BME280;10386;54.314;10.022;2023-02-23T11:13:38;100750.06;;;8.75;100.00
20455;BME280;10386;54.314;10.022;2023-02-23T11:16:13;100754.94;;;8.70;100.00
20455;BME280;10386;54.314;10.022;2023-02-23T11:18:47;100771.03;;;8.71;100.00
20455;BME280;10386;54.314;10.022;2023-02-23T11:24:21;100776.78;;;8.67;100.00
20455;BME280;10386;54.314;10.022;2023-02-23T11:26:52;100775.59;;;8.71;100.00
20455;BME280;10386;54.314;10.022;2023-02-23T11:29:31;100790.69;;;8.75;100.00
20455;BME280;10386;54.314;10.022;2023-02-23T11:32:09;100794.81;;;8.80;100.00
20455;BME280;10386;54.314;10.022;2023-02-23T11:34:39;100792.97;;;8.95;100.00
20455;BME280;10386;54.314;10.022;2023-02-23T11:37:21;100798.78;;;8.89;100.00
20455;BME280;10386;54.314;10.022;2023-02-23T11:40:16;100790.72;;;9.01;100.00
20455;BME280;10386;54.314;10.022;2023-02-23T11:43:13;100803.69;;;8.96;100.00
20455;BME280;10386;54.314;10.022;2023-02-23T11:46:02;100811.06;;;8.94;100.00
20455;BME280;10386;54.314;10.022;2023-02-23T11:50:59;100825.16;;;8.99;100.00
20455;BME280;10386;54.314;10.022;2023-02-23T11:53:36;100838.00;;;8.96;100.00
20455;BME280;10386;54.314;10.022;2023-02-23T11:56:06;100838.97;;;8.95;100.00
20455;BME280;10386;54.314;10.022;2023-02-23T11:58:43;100846.88;;;9.12;100.00
20455;BME280;10386;54.314;10.022;2023-02-23T12:01:19;100844.09;;;9.13;100.00
20455;BME280;10386;54.314;10.022;2023-02-23T12:03:55;100852.81;;;9.31;100.00
20455;BME280;10386;54.314;10.022;2023-02-23T12:06:27;100859.22;;;9.30;100.00
20455;BME280;10386;54.314;10.022;2023-02-23T12:09:44;100855.31;;;9.48;100.00
20455;BME280;10386;54.314;10.022;2023-02-23T12:11:56;100852.53;;;9.88;100.00
20455;BME280;10386;54.314;10.022;2023-02-23T12:17:33;100879.31;;;9.80;100.00
20455;BME280;10386;54.314;10.022;2023-02-23T12:20:06;100901.91;;;9.66;100.00
20455;BME280;10386;54.314;10.022;2023-02-23T12:22:42;100897.88;;;9.59;100.00
20455;BME280;10386;54.314;10.022;2023-02-23T12:28:16;100911.09;;;9.38;100.00
20455;BME280;10386;54.314;10.022;2023-02-23T12:31:02;100919.78;;;9.43;100.00
20455;BME280;10386;54.314;10.022;2023-02-23T12:33:37;100928.19;;;9.38;100.00
20455;BME280;10386;54.314;10.022;2023-02-23T12:41:41;100942.63;;;9.39;100.00
20455;BME280;10386;54.314;10.022;2023-02-23T12:44:25;100940.28;;;9.47;100.00
20455;BME280;10386;54.314;10.022;2023-02-23T12:46:56;100940.88;;;9.52;100.00
20455;BME280;10386;54.314;10.022;2023-02-23T12:49:40;100951.66;;;9.65;100.00
20455;BME280;10386;54.314;10.022;2023-02-23T12:52:19;100954.97;;;9.57;100.00
20455;BME280;10386;54.314;10.022;2023-02-23T12:54:47;100952.25;;;9.70;100.00
20455;BME280;10386;54.314;10.022;2023-02-23T12:57:31;100969.47;;;9.69;100.00
20455;BME280;10386;54.314;10.022;2023-02-23T13:00:16;100972.59;;;9.63;100.00
20455;BME280;10386;54.314;10.022;2023-02-23T13:03:25;100981.78;;;9.47;100.00
20455;BME280;10386;54.314;10.022;2023-02-23T13:06:20;100980.94;;;9.47;100.00
20455;BME280;10386;54.314;10.022;2023-02-23T13:09:18;100990.69;;;9.49;100.00
20455;BME280;10386;54.314;10.022;2023-02-23T13:14:37;100988.75;;;9.51;100.00
20455;BME280;10386;54.314;10.022;2023-02-23T13:19:52;101000.00;;;9.45;100.00
20455;BME280;10386;54.314;10.022;2023-02-23T13:22:28;100994.88;;;9.55;100.00
20455;BME280;10386;54.314;10.022;2023-02-23T13:25:01;100998.94;;;9.48;100.00
20455;BME280;10386;54.314;10.022;2023-02-23T13:27:39;100999.34;;;9.42;100.00
20455;BME280;10386;54.314;10.022;2023-02-23T13:30:11;101003.22;;;9.38;100.00
20455;BME280;10386;54.314;10.022;2023-02-23T13:32:38;101002.53;;;9.34;100.00
20455;BME280;10386;54.314;10.022;2023-02-23T13:35:12;101012.38;;;9.21;100.00
20455;BME280;10386;54.314;10.022;2023-02-23T13:37:43;101017.41;;;9.27;100.00
20455;BME280;10386;54.314;10.022;2023-02-23T13:41:29;101017.81;;;9.21;100.00
20455;BME280;10386;54.314;10.022;2023-02-23T13:43:27;101014.22;;;9.07;100.00
20455;BME280;10386;54.314;10.022;2023-02-23T13:48:48;101026.00;;;9.06;100.00
20455;BME280;10386;54.314;10.022;2023-02-23T13:51:34;101022.25;;;8.94;100.00
20455;BME280;10386;54.314;10.022;2023-02-23T13:56:44;101038.38;;;8.96;100.00
20455;BME280;10386;54.314;10.022;2023-02-23T13:59:18;101038.00;;;9.02;100.00
20455;BME280;10386;54.314;10.022;2023-02-23T14:01:49;101046.75;;;8.91;100.00
20455;BME280;10386;54.314;10.022;2023-02-23T14:04:34;101049.94;;;8.84;100.00
20455;BME280;10386;54.314;10.022;2023-02-23T14:09:38;101042.03;;;8.95;100.00
20455;BME280;10386;54.314;10.022;2023-02-23T14:14:38;101033.34;;;9.04;100.00
20455;BME280;10386;54.314;10.022;2023-02-23T14:19:41;101033.75;;;9.12;100.00
20455;BME280;10386;54.314;10.022;2023-02-23T14:22:16;101032.75;;;8.99;100.00
20455;BME280;10386;54.314;10.022;2023-02-23T14:27:56;101035.03;;;9.06;100.00
20455;BME280;10386;54.314;10.022;2023-02-23T14:30:28;101037.53;;;9.09;100.00
20455;BME280;10386;54.314;10.022;2023-02-23T14:33:00;101038.19;;;9.13;100.00
20455;BME280;10386;54.314;10.022;2023-02-23T14:35:43;101040.91;;;9.13;100.00
20455;BME280;10386;54.314;10.022;2023-02-23T14:38:16;101046.06;;;9.17;100.00
20455;BME280;10386;54.314;10.022;2023-02-23T14:40:52;101041.97;;;9.10;100.00
20455;BME280;10386;54.314;10.022;2023-02-23T14:46:01;101040.69;;;9.02;100.00
20455;BME280;10386;54.314;10.022;2023-02-23T14:48:32;101039.94;;;9.00;100.00